Time;durP1;ratioP1;P1;durP2;ratioP2;P2;SDS_P1;SDS_P2;PMS_P1;PMS_P2;Temp;Humidity;BMP_temperature;BMP_pressure;BME280_temperature;BME280_humidity;BME280_pressure;Samples;Min_cycle;Max_cycle;Signal;HPM_P1;HPM_P2
2023/01/03 00:00:55;;;;;;;2.53;1.57;;;;;;;8.18;100.00;100077.06;5109324;28;20225;-61
2023/01/03 00:03:23;;;;;;;2.70;1.77;;;;;;;8.27;100.00;100072.38;5112579;28;20213;-61
2023/01/03 00:05:49;;;;;;;3.10;1.93;;;;;;;8.27;100.00;100071.56;5113337;28;20197;-59
2023/01/03 00:08:18;;;;;;;1.60;1.50;;;;;;;8.24;100.00;100072.50;5113309;28;20217;-59
2023/01/03 00:10:45;;;;;;;3.23;2.13;;;;;;;8.30;100.00;100077.31;5113122;28;20654;-59
2023/01/03 00:13:10;;;;;;;1.67;1.40;;;;;;;8.32;100.00;100075.53;5113145;28;20201;-59
2023/01/03 00:15:38;;;;;;;4.03;1.77;;;;;;;8.36;100.00;100077.03;5113104;28;20216;-59
2023/01/03 00:18:05;;;;;;;2.93;1.67;;;;;;;8.41;100.00;100070.91;5112662;28;20288;-61
2023/01/03 00:20:33;;;;;;;3.40;1.53;;;;;;;8.37;99.71;100072.75;5113090;28;20236;-61
2023/01/03 00:23:00;;;;;;;3.63;2.27;;;;;;;8.31;99.96;100066.22;5112753;28;20652;-61
2023/01/03 00:25:29;;;;;;;1.77;1.60;;;;;;;8.23;99.83;100070.88;5112963;28;20744;-59
2023/01/03 00:27:57;;;;;;;3.17;1.87;;;;;;;8.18;100.00;100061.78;5112689;28;20224;-59
2023/01/03 00:30:23;;;;;;;1.60;1.50;;;;;;;8.15;100.00;100072.94;5112834;28;20683;-61
2023/01/03 00:32:50;;;;;;;2.17;1.80;;;;;;;8.14;100.00;100071.28;5112739;28;20197;-62
2023/01/03 00:35:17;;;;;;;1.17;1.07;;;;;;;8.30;100.00;100068.84;5112874;28;20190;-61
2023/01/03 00:37:44;;;;;;;2.00;1.40;;;;;;;8.41;99.53;100070.91;5112660;28;20194;-59
2023/01/03 00:40:12;;;;;;;1.53;1.43;;;;;;;8.46;99.70;100066.44;5112431;28;20213;-59
2023/01/03 00:45:21;;;;;;;1.80;1.63;;;;;;;8.42;98.90;100072.56;5112435;28;20640;-61
2023/01/03 00:47:47;;;;;;;1.80;1.33;;;;;;;8.36;98.86;100071.94;5112813;28;20204;-61
2023/01/03 00:50:14;;;;;;;1.43;1.23;;;;;;;8.30;98.89;100072.22;5112281;28;20225;-61
2023/01/03 00:52:41;;;;;;;2.80;1.37;;;;;;;8.22;98.99;100064.09;5112133;28;20209;-62
2023/01/03 00:55:09;;;;;;;2.57;1.80;;;;;;;8.28;98.49;100063.81;5112302;28;20221;-61
2023/01/03 00:57:36;;;;;;;2.13;1.83;;;;;;;8.23;98.86;100063.22;5112448;28;20220;-61
2023/01/03 01:00:05;;;;;;;1.67;1.57;;;;;;;8.20;98.70;100055.72;5112157;28;20217;-61
2023/01/03 01:02:32;;;;;;;2.23;1.53;;;;;;;8.15;99.28;100063.59;5112143;28;20229;-61
2023/01/03 01:04:59;;;;;;;2.47;1.60;;;;;;;8.21;99.47;100057.38;5111910;28;20421;-61
2023/01/03 01:07:25;;;;;;;1.67;1.30;;;;;;;8.29;99.18;100055.31;5112147;28;20201;-61
2023/01/03 01:09:52;;;;;;;4.50;1.50;;;;;;;8.30;99.28;100053.56;5111629;28;20578;-59
2023/01/03 01:12:19;;;;;;;2.37;1.40;;;;;;;8.32;99.20;100050.06;5112067;28;20205;-59
2023/01/03 01:14:46;;;;;;;2.80;1.60;;;;;;;8.30;99.22;100051.03;5110713;28;20213;-59
2023/01/03 01:17:14;;;;;;;2.07;1.47;;;;;;;8.29;99.38;100055.31;5111909;28;20198;-59
2023/01/03 01:19:43;;;;;;;6.33;1.60;;;;;;;8.24;99.52;100052.13;5111642;28;20221;-61
2023/01/03 01:22:11;;;;;;;2.30;1.60;;;;;;;8.22;99.24;100048.81;5111705;28;20229;-61
2023/01/03 01:24:38;;;;;;;2.63;1.87;;;;;;;8.14;99.40;100048.34;5111488;28;20231;-61
2023/01/03 01:27:06;;;;;;;1.83;1.63;;;;;;;8.06;99.65;100041.09;5111603;28;20208;-61
2023/01/03 01:29:33;;;;;;;1.80;1.70;;;;;;;8.01;99.77;100037.09;5111329;28;20221;-61
2023/01/03 01:32:00;;;;;;;2.23;1.97;;;;;;;7.94;99.82;100044.19;5111675;28;20204;-61
2023/01/03 01:34:28;;;;;;;2.83;2.13;;;;;;;7.91;100.00;100042.63;5111169;28;20244;-61
2023/01/03 01:36:56;;;;;;;1.97;1.50;;;;;;;7.89;100.00;100041.03;5111805;28;20600;-59
2023/01/03 01:39:27;;;;;;;1.80;1.50;;;;;;;7.85;100.00;100034.41;5111691;28;20217;-59
2023/01/03 01:44:48;;;;;;;4.47;1.70;;;;;;;7.85;100.00;100037.81;5111164;28;20755;-61
2023/01/03 01:47:22;;;;;;;4.00;1.60;;;;;;;7.81;100.00;100033.75;5111515;28;20712;-61
2023/01/03 01:49:54;;;;;;;2.13;1.70;;;;;;;7.77;100.00;100032.25;5111111;28;20213;-61
2023/01/03 01:52:22;;;;;;;1.67;1.53;;;;;;;7.75;100.00;100028.94;5111294;28;20208;-61
2023/01/03 01:54:51;;;;;;;1.87;1.50;;;;;;;7.72;100.00;100027.34;5111062;28;20221;-61
2023/01/03 01:57:21;;;;;;;3.30;1.60;;;;;;;7.71;100.00;100027.44;5111578;28;20197;-61
2023/01/03 01:59:49;;;;;;;1.83;1.37;;;;;;;7.63;100.00;100024.41;5110991;28;20213;-61
2023/01/03 02:02:22;;;;;;;2.40;1.87;;;;;;;7.67;100.00;100020.81;5111384;28;20803;-59
2023/01/03 02:04:54;;;;;;;1.33;1.23;;;;;;;7.70;100.00;100010.50;5111459;28;20209;-59
2023/01/03 02:07:22;;;;;;;1.60;1.20;;;;;;;7.69;100.00;100019.03;5111220;28;20189;-59
2023/01/03 02:09:52;;;;;;;1.90;1.80;;;;;;;7.71;100.00;100014.72;5110619;28;20228;-59
2023/01/03 02:15:33;;;;;;;2.53;1.60;;;;;;;7.79;99.80;100010.06;5110902;28;20196;-61
2023/01/03 02:18:12;;;;;;;2.13;1.80;;;;;;;7.85;99.04;100009.81;5110459;28;20193;-59
2023/01/03 02:21:03;;;;;;;2.70;1.80;;;;;;;7.88;98.50;100009.66;5110638;28;20197;-59
2023/01/03 02:24:20;;;;;;;2.30;1.83;;;;;;;7.84;98.31;100003.06;5110513;28;20217;-62
2023/01/03 02:27:03;;;;;;;2.63;1.97;;;;;;;7.83;98.00;100008.22;5084173;28;20217;-59
2023/01/03 02:30:03;;;;;;;3.43;1.73;;;;;;;7.80;97.93;100005.81;5110280;28;20213;-61
2023/01/03 02:32:39;;;;;;;5.40;2.10;;;;;;;7.79;98.27;100004.97;5110648;27;20203;-61
2023/01/03 02:35:14;;;;;;;3.03;1.70;;;;;;;7.75;98.06;99998.38;5110283;28;20608;-59
2023/01/03 02:37:50;;;;;;;3.63;1.47;;;;;;;7.75;97.53;100003.47;5110574;28;20247;-59
2023/01/03 02:40:25;;;;;;;1.63;1.53;;;;;;;7.69;97.79;100004.59;5110468;28;20221;-59
2023/01/03 02:42:59;;;;;;;5.80;2.00;;;;;;;7.68;97.89;100007.22;5110101;28;20236;-59
2023/01/03 02:45:47;;;;;;;1.97;1.80;;;;;;;7.72;97.80;100008.72;5110398;28;20215;-59
2023/01/03 02:48:22;;;;;;;2.27;1.80;;;;;;;7.71;97.43;100007.06;5110542;28;20212;-59
2023/01/03 02:50:53;;;;;;;1.53;1.43;;;;;;;7.72;96.83;100003.63;5110118;28;20196;-61
2023/01/03 02:53:26;;;;;;;4.10;2.43;;;;;;;7.73;96.43;100005.25;5110330;28;20701;-59
2023/01/03 02:55:57;;;;;;;1.87;1.50;;;;;;;7.69;96.49;100014.75;5110254;28;20190;-59
2023/01/03 02:58:28;;;;;;;2.60;1.60;;;;;;;7.64;96.33;100015.88;5110092;28;20580;-59
2023/01/03 03:00:58;;;;;;;4.43;1.80;;;;;;;7.63;96.26;100009.13;5109913;28;20202;-61
2023/01/03 03:03:31;;;;;;;2.33;1.67;;;;;;;7.64;96.08;100005.69;5109989;28;20213;-61
2023/01/03 03:06:04;;;;;;;4.30;2.20;;;;;;;7.65;95.79;100003.09;5109912;28;20202;-61
2023/01/03 03:08:31;;;;;;;3.37;1.73;;;;;;;7.64;95.31;100000.59;5109917;28;20225;-61
2023/01/03 03:13:48;;;;;;;1.83;1.73;;;;;;;7.64;94.97;100003.13;5110052;28;20215;-59
2023/01/03 03:16:46;;;;;;;2.37;1.57;;;;;;;7.58;95.23;99995.78;5110011;28;20661;-61
2023/01/03 03:24:48;;;;;;;3.57;1.67;;;;;;;7.54;95.11;100009.56;5109387;28;20221;-61
2023/01/03 03:24:57;;;;;;;1.33;1.03;;;;;;;7.37;95.60;99993.31;5109584;28;20305;-61
2023/01/03 03:30:14;;;;;;;2.63;1.73;;;;;;;7.35;96.09;100000.19;5109598;28;20241;-61
2023/01/03 03:32:44;;;;;;;1.00;0.90;;;;;;;7.30;96.13;100006.34;5109483;28;20193;-62
2023/01/03 03:35:16;;;;;;;2.30;1.73;;;;;;;7.20;96.08;99996.59;5110149;28;20224;-59
2023/01/03 03:37:46;;;;;;;3.30;1.93;;;;;;;7.21;96.39;100002.50;5112177;28;20239;-59
2023/01/03 03:45:57;;;;;;;1.80;1.10;;;;;;;7.28;95.46;99998.81;5113957;28;20193;-61
2023/01/03 03:48:28;;;;;;;1.60;1.30;;;;;;;7.28;95.50;99996.25;5113799;28;20664;-61
2023/01/03 03:51:01;;;;;;;4.43;1.87;;;;;;;7.22;95.40;100007.53;5113742;28;20204;-61
2023/01/03 03:53:33;;;;;;;1.27;1.17;;;;;;;7.19;95.56;100004.31;5113644;28;20216;-61
2023/01/03 03:56:07;;;;;;;2.07;1.13;;;;;;;7.09;95.84;100008.13;5113837;28;20190;-59
2023/01/03 03:58:39;;;;;;;2.30;1.60;;;;;;;7.01;95.96;100006.75;5113400;28;20216;-59
2023/01/03 04:01:07;;;;;;;3.47;1.73;;;;;;;7.02;96.59;100010.94;5113472;28;20201;-61
2023/01/03 04:03:36;;;;;;;1.40;1.30;;;;;;;6.99;96.77;100008.53;5113472;28;20231;-61
2023/01/03 04:06:08;;;;;;;3.27;2.17;;;;;;;6.96;96.97;100018.81;5113331;28;20201;-61
2023/01/03 04:08:36;;;;;;;1.13;1.03;;;;;;;6.91;97.02;100009.72;5113207;28;20217;-61
2023/01/03 04:11:05;;;;;;;2.63;1.93;;;;;;;6.88;96.77;100015.78;5113001;28;20554;-61
2023/01/03 04:13:32;;;;;;;1.63;1.13;;;;;;;6.85;97.17;100015.91;5112888;28;20282;-61
2023/01/03 04:15:59;;;;;;;1.93;1.50;;;;;;;6.84;97.12;100009.19;5113065;28;20203;-61
2023/01/03 04:18:26;;;;;;;1.23;1.13;;;;;;;6.88;96.89;100015.78;5113060;28;20224;-61
2023/01/03 04:20:53;;;;;;;1.63;1.27;;;;;;;6.89;96.74;100011.50;5112974;28;20205;-61
2023/01/03 04:23:21;;;;;;;1.93;1.00;;;;;;;6.84;96.30;100009.19;5112852;28;20324;-59
2023/01/03 04:25:49;;;;;;;1.30;1.20;;;;;;;6.76;96.59;100011.22;5112955;28;20204;-59
2023/01/03 04:28:15;;;;;;;1.43;1.23;;;;;;;6.73;97.30;100013.88;5112913;28;20266;-61
2023/01/03 04:30:42;;;;;;;1.47;1.27;;;;;;;6.69;96.90;100012.34;5112773;28;20193;-61
2023/01/03 04:33:09;;;;;;;1.80;1.37;;;;;;;6.69;97.41;100015.72;5112723;28;20573;-61
2023/01/03 04:35:36;;;;;;;1.53;1.30;;;;;;;6.65;97.26;100023.53;5112671;28;20189;-61
2023/01/03 04:38:04;;;;;;;1.43;1.33;;;;;;;6.58;97.89;100013.63;5112693;28;20198;-61
2023/01/03 04:40:34;;;;;;;0.90;0.77;;;;;;;6.53;97.89;100024.84;5112684;28;20243;-61
2023/01/03 04:45:45;;;;;;;2.20;1.20;;;;;;;6.42;98.36;100022.75;5112597;28;20274;-59
2023/01/03 04:48:12;;;;;;;1.73;1.40;;;;;;;6.42;98.60;100021.91;5111165;28;20199;-59
2023/01/03 04:50:39;;;;;;;2.53;2.03;;;;;;;6.40;98.50;100029.63;5112341;28;20193;-61
2023/01/03 04:53:06;;;;;;;1.40;1.10;;;;;;;6.37;98.47;100023.81;5112045;28;20193;-59
2023/01/03 04:55:34;;;;;;;1.30;1.20;;;;;;;6.32;98.61;100021.47;5112219;28;20204;-59
2023/01/03 04:58:01;;;;;;;1.87;1.47;;;;;;;6.26;98.62;100031.88;5112204;28;20378;-61
2023/01/03 05:00:28;;;;;;;0.70;0.70;;;;;;;6.23;98.79;100027.72;5112104;28;20193;-59
2023/01/03 05:02:55;;;;;;;1.20;1.00;;;;;;;6.22;99.09;100040.47;5111803;28;20231;-59
2023/01/03 05:05:22;;;;;;;1.47;1.00;;;;;;;6.19;99.10;100041.41;5112234;28;20208;-61
2023/01/03 05:07:49;;;;;;;3.03;1.03;;;;;;;6.22;99.04;100041.28;5112044;28;20203;-59
2023/01/03 05:10:16;;;;;;;3.17;1.03;;;;;;;6.21;99.15;100031.22;5111933;28;20589;-61
2023/01/03 05:12:58;;;;;;;2.37;1.23;;;;;;;6.22;99.15;100043.00;5111880;28;20197;-61
2023/01/03 05:15:25;;;;;;;1.03;0.70;;;;;;;6.17;99.10;100032.19;5112084;28;20642;-61
2023/01/03 05:17:52;;;;;;;3.20;1.33;;;;;;;6.15;99.28;100034.00;5111916;28;20648;-59
2023/01/03 05:25:49;;;;;;;0.93;0.73;;;;;;;6.05;99.87;100039.44;5080114;27;20205;-59
2023/01/03 05:28:19;;;;;;;2.00;0.77;;;;;;;6.00;99.98;100036.25;5112039;28;20221;-59
2023/01/03 05:30:46;;;;;;;2.03;1.13;;;;;;;5.99;100.00;100038.81;5111705;28;20212;-59
2023/01/03 05:33:12;;;;;;;2.63;0.93;;;;;;;5.96;100.00;100037.22;5111629;28;20224;-59
2023/01/03 05:35:39;;;;;;;1.17;0.60;;;;;;;5.93;100.00;100034.81;5111691;28;20220;-61
2023/01/03 05:38:06;;;;;;;0.97;0.73;;;;;;;5.92;100.00;100042.47;5111541;28;20207;-61
2023/01/03 05:40:33;;;;;;;1.10;0.60;;;;;;;5.88;100.00;100032.41;5111388;28;20213;-61
2023/01/03 05:43:00;;;;;;;1.20;0.70;;;;;;;5.89;100.00;100035.78;5111017;28;20232;-61
2023/01/03 05:45:28;;;;;;;0.90;0.60;;;;;;;5.84;100.00;100037.66;5111567;28;20247;-59
2023/01/03 05:47:57;;;;;;;0.97;0.87;;;;;;;5.80;100.00;100031.06;5111072;28;20661;-58
2023/01/03 05:50:23;;;;;;;1.57;1.07;;;;;;;5.79;100.00;100031.91;5111348;28;20212;-59
2023/01/03 05:52:50;;;;;;;2.00;1.67;;;;;;;5.81;100.00;100037.78;5111112;28;20201;-59
2023/01/03 05:55:17;;;;;;;1.17;0.83;;;;;;;5.84;100.00;100040.19;5111209;28;20310;-61
2023/01/03 05:57:46;;;;;;;1.43;1.33;;;;;;;5.87;100.00;100038.38;5111088;28;20209;-61
2023/01/03 06:00:14;;;;;;;2.43;1.20;;;;;;;5.85;100.00;100046.94;5110611;28;20221;-61
2023/01/03 06:02:42;;;;;;;1.53;1.03;;;;;;;5.85;100.00;100047.75;5110840;28;20720;-61
2023/01/03 06:05:10;;;;;;;0.77;0.77;;;;;;;5.80;100.00;100044.56;5110830;28;20229;-59
2023/01/03 06:07:37;;;;;;;3.13;1.37;;;;;;;5.81;100.00;100041.13;5110846;28;20205;-59
2023/01/03 06:10:05;;;;;;;0.60;0.60;;;;;;;5.83;100.00;100049.53;5110632;28;20221;-61
2023/01/03 06:12:32;;;;;;;3.03;0.97;;;;;;;5.83;100.00;100049.53;5110786;28;20204;-59
2023/01/03 06:14:58;;;;;;;3.03;1.33;;;;;;;5.87;100.00;100050.22;5110916;28;20213;-58
2023/01/03 06:20:11;;;;;;;0.80;0.80;;;;;;;5.96;100.00;100051.63;5110707;28;20324;-59
2023/01/03 06:22:38;;;;;;;0.70;0.70;;;;;;;5.97;100.00;100056.66;5110495;28;20228;-59
2023/01/03 06:25:06;;;;;;;0.70;0.70;;;;;;;5.97;100.00;100056.66;5110493;28;20709;-61
2023/01/03 06:27:32;;;;;;;0.63;0.63;;;;;;;6.03;100.00;100056.44;5110518;28;20200;-61
2023/01/03 06:29:59;;;;;;;1.53;1.10;;;;;;;6.15;100.00;100049.22;5110356;28;20225;-59
2023/01/03 06:32:26;;;;;;;1.23;1.13;;;;;;;6.29;100.00;100057.97;5110479;28;20205;-59
2023/01/03 06:34:53;;;;;;;1.60;1.30;;;;;;;6.38;99.60;100061.84;5110414;28;20213;-59
2023/01/03 06:37:21;;;;;;;1.20;1.00;;;;;;;6.46;99.23;100069.19;5110808;28;20197;-59
2023/01/03 06:39:48;;;;;;;1.83;1.30;;;;;;;6.51;98.73;100068.09;5110061;28;20228;-61
2023/01/03 06:53:19;;;;;;;1.00;0.80;;;;;;;6.98;96.78;100072.97;5110366;28;20223;-59
2023/01/03 06:55:47;;;;;;;0.67;0.67;;;;;;;7.05;95.88;100073.53;5110140;28;20201;-59
2023/01/03 06:58:14;;;;;;;1.03;0.80;;;;;;;7.18;94.90;100078.94;5109990;28;20257;-61
2023/01/03 07:00:43;;;;;;;1.70;1.23;;;;;;;7.26;94.34;100081.97;5110147;28;20244;-61
2023/01/03 07:03:10;;;;;;;1.23;1.10;;;;;;;7.38;93.70;100081.44;5109910;28;20233;-59
2023/01/03 07:05:37;;;;;;;1.20;0.80;;;;;;;7.55;93.04;100085.00;5109921;28;20300;-59
2023/01/03 07:08:04;;;;;;;1.77;1.27;;;;;;;7.70;92.08;100071.56;5109920;28;20201;-59
2023/01/03 07:10:32;;;;;;;1.77;1.07;;;;;;;7.90;91.54;100086.78;5109728;28;20197;-59
2023/01/03 07:15:45;;;;;;;0.87;0.70;;;;;;;8.35;89.55;100090.69;5110257;28;20187;-61
2023/01/03 07:18:12;;;;;;;1.43;1.33;;;;;;;8.54;88.40;100079.63;5109690;28;20207;-61
2023/01/03 07:20:42;;;;;;;1.23;0.70;;;;;;;8.84;86.89;100083.25;5109880;28;20805;-61
2023/01/03 07:23:09;;;;;;;3.70;1.03;;;;;;;8.95;86.69;100092.09;5109721;28;20340;-59
2023/01/03 07:25:40;;;;;;;1.27;1.17;;;;;;;9.24;86.32;100094.00;5109736;28;20197;-59
2023/01/03 07:28:08;;;;;;;0.97;0.87;;;;;;;9.49;84.40;100095.31;5109499;28;20208;-61
2023/01/03 07:30:39;;;;;;;1.00;0.90;;;;;;;9.62;83.20;100093.78;5109867;28;20205;-61
2023/01/03 07:33:07;;;;;;;1.17;1.07;;;;;;;9.73;83.01;100086.38;5109705;28;20679;-62
2023/01/03 07:35:35;;;;;;;2.43;0.97;;;;;;;9.85;82.11;100087.47;5109708;28;20197;-61
2023/01/03 07:38:02;;;;;;;1.17;1.07;;;;;;;10.06;81.59;100095.69;5109656;28;20208;-59
2023/01/03 07:40:29;;;;;;;1.63;1.20;;;;;;;10.29;80.96;100099.59;5109720;28;20197;-59
2023/01/03 07:45:42;;;;;;;2.20;1.40;;;;;;;10.25;79.45;100097.28;5110048;28;20203;-61
2023/01/03 07:48:09;;;;;;;1.13;0.87;;;;;;;10.20;79.25;100098.31;5109512;28;20201;-61
2023/01/03 07:50:37;;;;;;;2.27;1.70;;;;;;;10.17;79.84;100097.69;5109720;28;20202;-58
2023/01/03 07:53:05;;;;;;;1.97;0.90;;;;;;;10.31;79.03;100102.06;5109320;28;20201;-59
2023/01/03 07:55:32;;;;;;;2.60;1.07;;;;;;;10.41;78.95;100105.75;5109480;28;20194;-61
2023/01/03 07:58:01;;;;;;;5.53;1.30;;;;;;;10.46;78.53;100098.66;5109338;28;20206;-62
2023/01/03 08:00:28;;;;;;;1.20;1.00;;;;;;;10.58;78.56;100105.66;5109442;28;20236;-59
2023/01/03 08:02:55;;;;;;;1.90;1.07;;;;;;;10.76;78.58;100108.09;5109233;28;20255;-59
2023/01/03 08:05:23;;;;;;;1.23;1.10;;;;;;;10.97;77.89;100106.88;5109457;28;20193;-59
2023/01/03 08:07:50;;;;;;;1.50;1.37;;;;;;;11.22;77.22;100113.13;5109526;28;20198;-59
2023/01/03 08:15:52;;;;;;;1.77;1.20;;;;;;;11.80;73.56;100114.78;5103807;28;20205;-61
2023/01/03 08:18:21;;;;;;;2.50;1.60;;;;;;;12.03;73.25;100110.84;5109648;28;20221;-62
2023/01/03 08:20:50;;;;;;;1.03;0.93;;;;;;;12.33;71.76;100108.09;5109471;28;20202;-62
2023/01/03 08:23:17;;;;;;;1.93;1.43;;;;;;;12.51;70.18;100115.53;5110910;28;20319;-62
2023/01/03 08:25:44;;;;;;;1.90;1.40;;;;;;;12.63;69.47;100112.19;5112935;28;20856;-62
2023/01/03 08:28:12;;;;;;;1.30;1.00;;;;;;;12.90;69.48;100117.28;5112626;28;20369;-63
2023/01/03 08:30:43;;;;;;;2.03;1.27;;;;;;;12.99;68.01;100115.84;5112768;28;20201;-62
2023/01/03 08:33:12;;;;;;;3.17;1.50;;;;;;;13.21;68.10;100110.94;5112964;28;20202;-59
2023/01/03 08:35:42;;;;;;;1.80;1.10;;;;;;;13.49;67.54;100115.06;5112796;28;20209;-60
2023/01/03 08:38:15;;;;;;;4.10;1.40;;;;;;;13.68;66.25;100113.84;5112419;28;20200;-59
2023/01/03 08:40:44;;;;;;;2.30;1.37;;;;;;;13.97;65.64;100114.38;5112650;28;20546;-59
2023/01/03 08:43:15;;;;;;;2.00;1.20;;;;;;;14.33;65.16;100108.38;5112174;28;20738;-60
2023/01/03 08:45:42;;;;;;;2.50;1.73;;;;;;;14.51;64.19;100103.66;5112415;28;20212;-59
2023/01/03 08:48:10;;;;;;;2.13;1.77;;;;;;;14.59;63.50;100106.53;5112532;28;20202;-60
2023/01/03 08:50:37;;;;;;;2.43;1.43;;;;;;;14.83;63.14;100100.50;5112460;28;20204;-60
2023/01/03 08:53:05;;;;;;;3.17;1.57;;;;;;;14.63;62.23;100097.66;5112058;28;20197;-60
2023/01/03 08:55:32;;;;;;;1.57;1.27;;;;;;;14.77;62.27;100098.41;5112332;28;20204;-60
2023/01/03 08:57:59;;;;;;;2.37;1.50;;;;;;;14.76;62.60;100104.50;5112137;28;20193;-59
2023/01/03 09:00:28;;;;;;;2.20;1.57;;;;;;;14.75;62.68;100107.97;5112157;28;20201;-63
2023/01/03 09:02:58;;;;;;;1.83;1.63;;;;;;;14.66;63.13;100102.59;5111992;28;20274;-59
2023/01/03 09:05:25;;;;;;;4.23;1.90;;;;;;;14.78;63.27;100097.47;5112207;28;20266;-60
2023/01/03 09:07:53;;;;;;;1.70;1.60;;;;;;;14.90;62.48;100099.16;5112186;28;20207;-63
2023/01/03 09:10:20;;;;;;;2.57;1.60;;;;;;;14.91;62.52;100099.00;5112293;28;20201;-63
2023/01/03 09:12:47;;;;;;;2.70;1.33;;;;;;;14.76;62.01;100097.56;5112093;28;20197;-59
2023/01/03 09:15:14;;;;;;;2.33;1.70;;;;;;;15.10;61.74;100095.91;5112123;27;20225;-59
2023/01/03 09:17:44;;;;;;;1.93;1.40;;;;;;;15.09;61.65;100088.28;5111827;28;20622;-63
2023/01/03 09:20:12;;;;;;;2.23;1.30;;;;;;;15.24;62.89;100086.31;5112002;28;20792;-60
2023/01/03 09:22:39;;;;;;;3.77;1.77;;;;;;;15.69;61.19;100086.34;5111879;28;20198;-60
2023/01/03 09:25:06;;;;;;;1.90;1.60;;;;;;;15.43;59.91;100086.56;5111563;28;20228;-60
2023/01/03 09:27:33;;;;;;;2.73;1.90;;;;;;;15.20;61.02;100087.47;5111720;28;20280;-60
2023/01/03 09:30:00;;;;;;;2.83;1.50;;;;;;;15.49;61.35;100075.78;5111542;28;20218;-60
2023/01/03 09:32:26;;;;;;;3.10;1.87;;;;;;;15.59;59.74;100068.97;5111602;28;20207;-63
2023/01/03 09:34:55;;;;;;;2.57;1.90;;;;;;;16.27;59.50;100068.84;5110606;28;20305;-63
2023/01/03 09:37:22;;;;;;;3.27;1.97;;;;;;;16.59;57.76;100065.41;5111696;28;20203;-63
2023/01/03 09:39:48;;;;;;;3.20;1.63;;;;;;;16.92;57.75;100067.81;5111538;28;20233;-60
2023/01/03 09:45:06;;;;;;;2.23;1.70;;;;;;;17.97;54.73;100059.78;5111327;28;20234;-63
2023/01/03 09:47:37;;;;;;;4.10;2.37;;;;;;;17.84;54.88;100043.69;5111067;28;20201;-63
2023/01/03 09:50:07;;;;;;;2.80;1.90;;;;;;;18.06;54.00;100042.63;5111222;28;20368;-63
2023/01/03 10:04:07;;;;;;;2.67;1.90;;;;;;;17.51;51.99;100026.72;5084201;28;20236;-63
2023/01/03 10:06:49;;;;;;;4.80;2.30;;;;;;;17.61;52.66;100019.81;5111418;28;20190;-60
2023/01/03 10:09:27;;;;;;;4.27;2.30;;;;;;;17.20;53.83;100016.44;5111498;28;20299;-60
2023/01/03 10:12:04;;;;;;;3.70;2.50;;;;;;;17.83;53.04;100011.84;5110685;28;20202;-60
2023/01/03 10:14:45;;;;;;;6.90;3.20;;;;;;;17.36;53.15;100018.50;5110697;28;20219;-60
2023/01/03 10:17:23;;;;;;;5.00;3.10;;;;;;;16.89;53.14;100023.34;5110732;28;20200;-60
2023/01/03 10:20:15;;;;;;;4.93;2.97;;;;;;;16.78;54.43;100013.91;5110717;28;20218;-63
2023/01/03 10:22:45;;;;;;;4.23;2.77;;;;;;;16.70;54.66;100006.78;5101975;28;20260;-63
2023/01/03 10:25:15;;;;;;;8.80;3.70;;;;;;;16.74;54.97;100008.16;5110531;28;20223;-64
2023/01/03 10:27:46;;;;;;;4.13;2.70;;;;;;;17.27;53.44;100009.78;5110564;28;20210;-63
2023/01/03 10:30:16;;;;;;;4.77;2.73;;;;;;;17.31;53.05;100006.00;5110459;28;20221;-64
2023/01/03 10:33:00;;;;;;;7.53;3.47;;;;;;;17.23;53.34;100002.44;5110434;28;20251;-60
2023/01/03 10:35:30;;;;;;;4.60;2.83;;;;;;;16.92;54.84;99992.91;5110501;28;20203;-60
2023/01/03 10:37:59;;;;;;;5.17;3.23;;;;;;;16.80;54.86;99996.53;5110351;28;20202;-60
2023/01/03 10:40:35;;;;;;;4.87;3.40;;;;;;;16.52;55.25;99982.47;5110386;28;20203;-63
2023/01/03 10:43:09;;;;;;;4.03;2.30;;;;;;;16.84;55.48;99987.59;5109943;28;20205;-63
2023/01/03 10:45:51;;;;;;;4.13;2.60;;;;;;;16.93;54.51;99986.81;5110200;28;20228;-60
2023/01/03 10:48:17;;;;;;;6.43;3.10;;;;;;;16.96;54.68;99985.75;5110474;28;20214;-60
2023/01/03 10:50:45;;;;;;;5.03;2.80;;;;;;;16.92;55.09;99969.66;5110193;28;20201;-60
2023/01/03 10:53:16;;;;;;;7.20;3.63;;;;;;;16.89;55.67;99969.09;5110110;28;20255;-60
2023/01/03 10:55:49;;;;;;;5.97;3.03;;;;;;;16.63;54.66;99973.84;5110180;28;20197;-60
2023/01/03 10:58:21;;;;;;;6.20;3.23;;;;;;;17.16;56.64;99968.50;5110035;28;20221;-60
2023/01/03 11:00:48;;;;;;;4.77;2.63;;;;;;;17.12;54.55;99962.00;5110301;28;20221;-60
2023/01/03 11:03:17;;;;;;;12.07;3.30;;;;;;;17.39;53.61;99962.22;5109987;28;20222;-60
2023/01/03 11:05:47;;;;;;;5.77;2.50;;;;;;;17.32;53.67;99960.28;5110057;28;20198;-60
2023/01/03 11:08:18;;;;;;;3.83;2.83;;;;;;;16.84;54.29;99964.34;5109920;28;20225;-60
2023/01/03 11:10:56;;;;;;;7.23;2.90;;;;;;;16.70;54.80;99954.31;5109882;28;20599;-60
2023/01/03 11:13:33;;;;;;;7.57;3.10;;;;;;;17.06;54.40;99947.00;5109664;28;20213;-60
2023/01/03 11:16:01;;;;;;;4.17;2.70;;;;;;;16.71;54.03;99950.78;5110023;28;20200;-60
2023/01/03 11:18:30;;;;;;;5.33;2.67;;;;;;;16.66;53.26;99943.41;5110129;28;20217;-63
2023/01/03 11:21:07;;;;;;;5.47;3.03;;;;;;;16.41;54.55;99934.34;5109774;28;20226;-63
2023/01/03 11:23:57;;;;;;;3.07;2.43;;;;;;;16.66;54.57;99937.44;5109445;28;20243;-63
2023/01/03 11:26:41;;;;;;;4.33;2.70;;;;;;;16.60;54.82;99935.38;5109907;28;20201;-62
2023/01/03 11:29:24;;;;;;;3.60;2.77;;;;;;;16.49;54.98;99937.09;5109523;28;20656;-62
2023/01/03 11:31:59;;;;;;;4.40;2.73;;;;;;;16.20;55.45;99930.94;5109794;28;20193;-63
2023/01/03 11:34:48;;;;;;;5.63;2.80;;;;;;;16.11;56.32;99927.34;5109691;28;20243;-62
2023/01/03 11:37:24;;;;;;;7.43;3.10;;;;;;;15.88;56.80;99925.81;5109759;28;20203;-63
2023/01/03 11:40:05;;;;;;;4.27;2.83;;;;;;;16.30;56.59;99929.25;5110187;28;20220;-60
2023/01/03 11:42:38;;;;;;;4.00;2.50;;;;;;;16.30;56.53;99926.66;5109607;28;20573;-60
2023/01/03 11:45:21;;;;;;;6.77;3.07;;;;;;;16.24;56.57;99927.16;5109618;28;20239;-60
2023/01/03 11:47:59;;;;;;;5.17;3.07;;;;;;;16.49;56.65;99921.63;5109790;28;20212;-60
2023/01/03 11:50:38;;;;;;;2.90;2.20;;;;;;;16.38;57.44;99919.09;5109653;28;20212;-61
2023/01/03 11:53:13;;;;;;;4.27;2.73;;;;;;;16.35;57.22;99924.53;5109644;28;20197;-62
2023/01/03 11:55:58;;;;;;;6.83;3.10;;;;;;;16.65;57.48;99920.31;5109521;28;20201;-63
2023/01/03 11:58:52;;;;;;;5.33;3.03;;;;;;;16.67;57.43;99921.03;5111122;28;20227;-62
2023/01/03 12:01:31;;;;;;;4.80;2.73;;;;;;;16.19;58.42;99924.16;5111010;28;20608;-62
2023/01/03 12:04:17;;;;;;;4.63;2.63;;;;;;;16.13;59.50;99919.50;5112073;28;20254;-62
2023/01/03 12:06:51;;;;;;;3.53;2.50;;;;;;;16.25;58.96;99921.88;5113692;28;20272;-62
2023/01/03 12:09:27;;;;;;;6.33;3.00;;;;;;;16.30;58.11;99921.50;5113274;28;20223;-62
2023/01/03 12:12:18;;;;;;;3.73;3.03;;;;;;;16.28;57.80;99924.19;5112991;28;20196;-60
2023/01/03 12:14:48;;;;;;;3.53;2.50;;;;;;;16.44;57.55;99922.94;5113317;28;20236;-62
2023/01/03 12:17:20;;;;;;;4.73;3.13;;;;;;;16.30;58.55;99922.31;5113180;28;20208;-62
2023/01/03 12:19:52;;;;;;;5.90;3.10;;;;;;;16.48;58.57;99919.97;5113157;28;20228;-62
2023/01/03 12:22:27;;;;;;;3.50;2.53;;;;;;;16.61;57.03;99916.34;5113244;28;20220;-59
2023/01/03 12:24:59;;;;;;;4.20;2.60;;;;;;;16.67;56.73;99918.44;5112949;28;20704;-60
2023/01/03 12:27:34;;;;;;;3.70;2.80;;;;;;;16.36;57.35;99921.00;5113335;28;20221;-60
2023/01/03 12:30:06;;;;;;;6.13;3.00;;;;;;;16.29;56.93;99920.69;5112855;28;20216;-60
2023/01/03 12:32:42;;;;;;;6.53;2.67;;;;;;;15.99;57.13;99921.44;5112828;28;20197;-59
2023/01/03 12:35:24;;;;;;;4.67;2.60;;;;;;;16.02;57.90;99921.19;5112704;28;20216;-60
2023/01/03 12:37:51;;;;;;;4.13;2.50;;;;;;;16.12;57.76;99923.03;5112799;28;20197;-60
2023/01/03 12:40:25;;;;;;;4.87;3.50;;;;;;;16.19;57.62;99926.72;5112935;28;20255;-60
2023/01/03 12:43:04;;;;;;;5.30;3.23;;;;;;;16.02;57.73;99934.06;5112710;28;20194;-60
2023/01/03 12:45:44;;;;;;;5.57;3.23;;;;;;;15.65;58.93;99925.06;5112620;28;20225;-60
2023/01/03 12:48:37;;;;;;;8.60;3.63;;;;;;;15.78;59.27;99925.75;5112478;28;20212;-59
2023/01/03 12:51:04;;;;;;;8.57;4.40;;;;;;;15.75;58.68;99931.97;5107267;28;20201;-60
2023/01/03 12:53:39;;;;;;;8.43;4.63;;;;;;;15.59;59.37;99924.63;5112461;28;20213;-62
2023/01/03 12:56:23;;;;;;;4.80;3.30;;;;;;;15.45;59.34;99927.47;5112330;28;20197;-63